Wells, ME (04090)

10:15 AM EST on February 12, 2016 (GMT -0500)
Loop Rd | | Change Station
CLOSE
Current Station
Personal Weather Station
Location: Wells, ME
Elevation: 187 ft
Nearby Weather Stations

Elev 187 ft 43.29 °N, 70.64 °W | Updated 34 seconds ago

Clear
Clear
16.2 °F
Feels Like 11 °F
N
3.2
Wind Variable Wind from NNE

Today
High -- | Low -- °F
--% Chance of Precip.
Yesterday
High -- | Low -- °F
Precip. -- in
Pressure 30.12 in
Visibility 10.0 miles
Clouds Clear
Windchill 11 °F
Dew Point -2 °F
Humidity 43%
Rainfall 0.00 in
Snow Depth Not available.
6:45 AM 5:08 PM
Waxing Crescent, 21% visible
METAR KSFM 121455Z AUTO 27010G16KT 10SM CLR M12/M22 A3012 RMK AO1 52010
Pressure 30.12 in
Visibility 10.0 miles
Clouds Clear
Windchill 11 °F
Dew Point -2 °F
Humidity 43%
Rainfall 0.00 in
Snow Depth Not available.
6:45 AM 5:08 PM
Waxing Crescent, 21% visible
METAR KSFM 121455Z AUTO 27010G16KT 10SM CLR M12/M22 A3012 RMK AO1 52010

10-Day Weather Forecast

Almanac

Astronomy

Feb. 12, 2016 Rise Set
Actual Time
Civil Twilight
Nautical Twilight
Astronomical Twilight
Moon
Length of Visible Light
Length of Day
Tomorrow will be .
, % of the Moon is Illuminated

Today's Extremes

State Highs State Lows

Community

WunderPhotos

Upload Photos

1,892,325 photos uploaded!

WunderBlog® & News

Nearby

Air Quality

  Air Quality AQ Index Pollutant
Not available.

Snow Depth

Station Depth Elevation

Earthquake Activity

City Distance Mag. Time & Date
Minimum magnitude displayed is 2.5.

Coastal Water Temperatures

Place Temperature

Stations

Nearby Weather Stations

Station Location Temp. Windchill Dew Point Humidity Wind Precip. Elev Updated Type
                   

Watches & Warnings

There are currently no watches in effect.